Time;durP1;ratioP1;P1;durP2;ratioP2;P2;SDS_P1;SDS_P2;PMS_P1;PMS_P2;Temp;Humidity;BMP_temperature;BMP_pressure;BME280_temperature;BME280_humidity;BME280_pressure;Samples;Min_cycle;Max_cycle;Signal;HPM_P1;HPM_P2
2022/01/05 00:01:20;;;;;;;11.65;1.70;;;3.20;99.90;;;;;;5019181;28;20042;-49
2022/01/05 00:03:45;;;;;;;8.38;1.83;;;3.30;99.90;;;;;;5016164;28;20042;-48
2022/01/05 00:06:11;;;;;;;8.63;1.80;;;3.30;99.90;;;;;;5014407;28;20038;-49
2022/01/05 00:08:36;;;;;;;7.43;1.50;;;3.30;99.90;;;;;;5007064;28;20072;-50
2022/01/05 00:11:02;;;;;;;11.75;1.60;;;3.40;99.90;;;;;;5014425;28;20089;-49
2022/01/05 00:13:27;;;;;;;9.07;1.48;;;3.40;99.90;;;;;;5014405;28;20081;-49
2022/01/05 00:15:53;;;;;;;5.32;1.95;;;3.30;99.90;;;;;;4999595;28;20088;-50
2022/01/05 00:18:18;;;;;;;15.13;2.70;;;3.40;99.90;;;;;;5013509;28;20034;-50
2022/01/05 00:20:44;;;;;;;8.32;1.92;;;3.40;99.90;;;;;;5018132;28;20096;-49
2022/01/05 00:23:10;;;;;;;9.25;1.73;;;3.30;99.90;;;;;;5022474;28;20045;-50
2022/01/05 00:25:35;;;;;;;11.52;2.88;;;3.30;99.90;;;;;;5014161;28;20038;-51
2022/01/05 00:28:01;;;;;;;7.20;1.25;;;3.30;99.90;;;;;;5014455;28;20046;-48
2022/01/05 00:30:27;;;;;;;8.70;1.50;;;3.30;99.90;;;;;;4996845;28;20034;-49
2022/01/05 00:32:53;;;;;;;8.82;1.70;;;3.30;99.90;;;;;;4995936;28;20490;-49
2022/01/05 00:35:18;;;;;;;7.68;1.83;;;3.20;99.90;;;;;;5014333;28;20026;-50
2022/01/05 00:37:44;;;;;;;9.95;1.50;;;3.20;99.90;;;;;;5001109;28;20034;-52
2022/01/05 00:40:10;;;;;;;7.50;1.40;;;3.20;99.90;;;;;;5016422;28;20095;-52
2022/01/05 00:42:35;;;;;;;6.43;1.33;;;3.10;99.90;;;;;;5014937;28;20462;-50
2022/01/05 00:45:02;;;;;;;8.80;1.98;;;3.10;99.90;;;;;;5018178;28;20148;-48
2022/01/05 00:47:28;;;;;;;12.35;1.63;;;3.00;99.90;;;;;;5014414;28;20152;-50
2022/01/05 00:49:53;;;;;;;8.85;1.70;;;3.00;99.90;;;;;;5013923;28;20151;-49
2022/01/05 00:52:19;;;;;;;10.88;2.00;;;3.00;99.90;;;;;;4998398;28;20519;-53
2022/01/05 00:54:45;;;;;;;11.15;2.03;;;3.00;99.90;;;;;;5012848;28;20526;-47
2022/01/05 00:57:11;;;;;;;10.10;1.98;;;2.90;99.90;;;;;;5013948;28;20048;-47
2022/01/05 00:59:37;;;;;;;9.40;1.60;;;2.90;99.90;;;;;;5014217;28;20038;-50
2022/01/05 01:02:03;;;;;;;11.30;2.15;;;2.90;99.90;;;;;;4995868;28;20490;-51
2022/01/05 01:04:29;;;;;;;6.75;1.55;;;2.90;99.90;;;;;;5014043;28;20054;-48
2022/01/05 01:06:55;;;;;;;9.93;2.03;;;2.80;99.90;;;;;;5000733;28;20034;-50
2022/01/05 01:09:21;;;;;;;8.18;1.48;;;2.90;99.90;;;;;;5013642;28;20121;-50
2022/01/05 01:11:46;;;;;;;7.55;1.65;;;2.80;99.90;;;;;;5013434;28;20037;-51
2022/01/05 01:14:12;;;;;;;7.85;1.70;;;2.80;99.90;;;;;;5013394;28;20245;-49
2022/01/05 01:16:37;;;;;;;10.07;1.60;;;2.90;99.90;;;;;;5013180;28;20038;-51
2022/01/05 01:19:03;;;;;;;11.20;1.60;;;2.80;99.90;;;;;;5012622;28;20060;-51
2022/01/05 01:21:29;;;;;;;6.97;1.20;;;2.80;99.90;;;;;;4998663;28;20076;-50
2022/01/05 01:23:55;;;;;;;10.68;1.67;;;2.90;99.90;;;;;;4980074;28;20049;-51
2022/01/05 01:26:23;;;;;;;7.95;2.17;;;2.80;99.90;;;;;;5014702;28;20034;-50
2022/01/05 01:28:49;;;;;;;8.27;1.80;;;2.90;99.90;;;;;;4999761;28;20050;-48
2022/01/05 01:31:15;;;;;;;9.23;1.55;;;2.90;99.90;;;;;;4963128;28;20041;-52
2022/01/05 01:33:40;;;;;;;11.10;2.15;;;2.90;99.90;;;;;;5018910;28;20639;-48
2022/01/05 01:36:06;;;;;;;11.10;1.70;;;2.80;99.90;;;;;;5016777;28;20037;-47
2022/01/05 01:38:32;;;;;;;9.02;2.03;;;2.80;99.90;;;;;;4990778;28;20482;-50
2022/01/05 01:40:57;;;;;;;7.18;1.98;;;2.80;99.90;;;;;;5012975;28;20121;-51
2022/01/05 01:43:23;;;;;;;11.38;1.98;;;2.80;99.90;;;;;;5012727;28;20124;-50
2022/01/05 01:45:48;;;;;;;9.68;2.22;;;2.80;99.90;;;;;;5012124;28;20042;-51
2022/01/05 01:48:14;;;;;;;6.20;1.33;;;2.80;99.90;;;;;;5014052;28;20041;-49
2022/01/05 01:50:40;;;;;;;14.35;1.98;;;2.80;99.90;;;;;;5018610;28;20038;-48
2022/01/05 01:53:05;;;;;;;11.57;1.98;;;2.80;99.90;;;;;;5022284;28;20057;-51
2022/01/05 01:55:32;;;;;;;9.77;2.22;;;2.80;99.90;;;;;;4981473;28;20049;-47
2022/01/05 01:57:59;;;;;;;12.70;2.15;;;2.70;99.90;;;;;;5017950;28;20045;-47
2022/01/05 02:00:24;;;;;;;13.82;1.80;;;2.70;99.90;;;;;;4998235;28;20521;-47
2022/01/05 02:02:51;;;;;;;13.75;2.00;;;2.70;99.90;;;;;;4991671;28;20046;-50
2022/01/05 02:05:17;;;;;;;10.15;2.05;;;2.70;99.90;;;;;;5009084;28;20046;-48
2022/01/05 02:07:42;;;;;;;9.07;1.60;;;2.70;99.90;;;;;;4981903;28;20045;-48
2022/01/05 02:10:09;;;;;;;13.65;2.13;;;2.70;99.90;;;;;;5003420;28;20502;-50
2022/01/05 02:12:36;;;;;;;10.45;2.05;;;2.70;99.90;;;;;;4994996;28;20382;-47
2022/01/05 02:15:02;;;;;;;8.45;2.08;;;2.70;99.90;;;;;;4987109;28;20080;-48
2022/01/05 02:17:47;;;;;;;11.68;1.95;;;2.70;99.90;;;;;;5030075;28;20087;-51
2022/01/05 02:20:15;;;;;;;12.27;1.77;;;2.70;99.90;;;;;;5010467;28;20441;-52
2022/01/05 02:22:41;;;;;;;13.60;2.10;;;2.70;99.90;;;;;;5014517;28;20033;-50
2022/01/05 02:25:07;;;;;;;13.43;2.17;;;2.70;99.90;;;;;;5017087;28;20042;-53
2022/01/05 02:27:32;;;;;;;12.82;2.35;;;2.70;99.90;;;;;;5012244;28;20049;-48
2022/01/05 02:29:58;;;;;;;8.63;1.95;;;2.70;99.90;;;;;;5012139;28;20050;-51
2022/01/05 02:32:24;;;;;;;13.25;2.15;;;2.70;99.90;;;;;;4978482;28;20125;-50
2022/01/05 02:34:49;;;;;;;15.77;2.13;;;2.70;99.90;;;;;;5004819;28;20125;-50
2022/01/05 02:37:15;;;;;;;8.52;2.17;;;2.60;99.90;;;;;;4994530;28;20490;-51
2022/01/05 02:39:41;;;;;;;11.50;2.38;;;2.60;99.90;;;;;;4978493;28;20038;-50
2022/01/05 02:42:07;;;;;;;12.32;2.42;;;2.60;99.90;;;;;;5011639;28;20037;-51
2022/01/05 02:44:32;;;;;;;16.42;2.38;;;2.70;99.90;;;;;;5010745;28;20104;-51
2022/01/05 02:46:58;;;;;;;12.23;2.08;;;2.70;99.90;;;;;;5010043;28;20049;-51
2022/01/05 02:49:23;;;;;;;9.75;1.88;;;2.70;99.90;;;;;;4994736;28;20046;-50
2022/01/05 02:51:49;;;;;;;15.73;2.30;;;2.70;99.90;;;;;;4997989;28;20121;-53
2022/01/05 02:54:14;;;;;;;12.50;2.10;;;2.70;99.90;;;;;;4997006;28;20430;-49
2022/01/05 02:56:40;;;;;;;12.98;2.28;;;2.80;99.90;;;;;;5011629;28;20088;-48
2022/01/05 02:59:06;;;;;;;14.77;2.67;;;2.80;99.90;;;;;;5010693;28;20038;-53
2022/01/05 03:01:33;;;;;;;15.32;2.20;;;2.80;99.90;;;;;;5010671;28;20046;-48
2022/01/05 03:03:58;;;;;;;14.20;2.08;;;2.80;99.90;;;;;;5011674;28;20565;-51
2022/01/05 03:06:24;;;;;;;12.73;2.20;;;2.80;99.90;;;;;;5009667;28;20041;-50
2022/01/05 03:08:50;;;;;;;11.50;2.40;;;2.90;99.90;;;;;;4995443;28;20045;-50
2022/01/05 03:11:16;;;;;;;14.00;2.50;;;2.90;99.90;;;;;;5018555;28;20117;-51
2022/01/05 03:13:43;;;;;;;14.07;2.33;;;2.90;99.90;;;;;;5013102;28;20120;-48
2022/01/05 03:16:08;;;;;;;11.68;2.53;;;2.90;99.90;;;;;;5031338;28;20045;-48
2022/01/05 03:18:34;;;;;;;17.48;2.35;;;2.90;99.90;;;;;;4999782;28;20033;-51
2022/01/05 03:20:59;;;;;;;16.63;2.30;;;2.90;99.90;;;;;;5020797;28;20398;-51
2022/01/05 03:23:25;;;;;;;19.80;2.83;;;2.90;99.90;;;;;;5015390;28;20076;-50
2022/01/05 03:25:50;;;;;;;16.02;2.55;;;2.90;99.90;;;;;;5015640;28;20124;-50
2022/01/05 03:28:16;;;;;;;12.32;2.00;;;3.00;99.90;;;;;;5014176;28;20038;-52
2022/01/05 03:30:42;;;;;;;10.95;2.22;;;2.90;99.90;;;;;;5015547;28;20609;-51
2022/01/05 03:33:19;;;;;;;15.95;2.20;;;3.00;99.90;;;;;;5015241;28;20073;-49
2022/01/05 03:35:46;;;;;;;13.98;2.15;;;2.90;99.90;;;;;;5015203;28;20038;-50
2022/01/05 03:38:13;;;;;;;15.35;2.47;;;2.90;99.90;;;;;;5015411;28;20034;-51
2022/01/05 03:40:39;;;;;;;11.73;2.70;;;2.90;99.90;;;;;;5015641;28;20041;-53
2022/01/05 03:43:06;;;;;;;13.43;2.60;;;2.90;99.90;;;;;;5008004;28;20507;-51
2022/01/05 03:45:32;;;;;;;21.20;2.63;;;2.90;99.90;;;;;;5012667;28;20042;-49
2022/01/05 03:47:58;;;;;;;16.90;2.67;;;3.00;99.90;;;;;;4997705;28;20520;-51
2022/01/05 03:50:23;;;;;;;17.95;2.60;;;2.90;99.90;;;;;;5014964;28;20397;-48
2022/01/05 03:52:49;;;;;;;18.75;2.33;;;3.00;99.90;;;;;;5014541;28;20045;-50
2022/01/05 03:55:15;;;;;;;13.57;2.42;;;3.00;99.90;;;;;;5013619;28;20038;-52
2022/01/05 03:57:40;;;;;;;13.27;2.80;;;3.10;99.90;;;;;;4993791;28;20037;-47
2022/01/05 04:00:07;;;;;;;13.98;2.20;;;3.10;99.90;;;;;;4995522;28;20482;-51
2022/01/05 04:02:32;;;;;;;19.13;2.60;;;3.10;99.90;;;;;;4994986;28;20065;-47
2022/01/05 04:04:58;;;;;;;14.55;2.20;;;3.10;99.90;;;;;;4995291;28;20507;-47
2022/01/05 04:07:23;;;;;;;16.83;2.63;;;3.20;99.90;;;;;;4993893;28;20482;-48
2022/01/05 04:09:49;;;;;;;18.20;3.17;;;3.20;99.90;;;;;;4995562;28;20130;-49
2022/01/05 04:12:14;;;;;;;15.88;2.40;;;3.30;99.90;;;;;;4996464;28;20053;-48
2022/01/05 04:14:40;;;;;;;19.15;2.85;;;3.30;99.90;;;;;;5014282;28;20487;-49
2022/01/05 04:17:06;;;;;;;11.00;2.20;;;3.40;99.90;;;;;;5001908;28;20525;-51
2022/01/05 04:19:31;;;;;;;19.20;2.65;;;3.40;99.90;;;;;;4994949;28;20058;-50
2022/01/05 04:21:57;;;;;;;16.48;3.03;;;3.40;99.90;;;;;;4994622;28;20052;-49
2022/01/05 04:24:23;;;;;;;17.33;2.78;;;3.40;99.90;;;;;;4994630;28;20046;-48
2022/01/05 04:26:49;;;;;;;16.45;2.75;;;3.40;99.90;;;;;;4996844;28;20525;-50
2022/01/05 04:29:14;;;;;;;17.83;2.70;;;3.40;99.90;;;;;;5013567;28;20073;-50
2022/01/05 04:31:40;;;;;;;15.85;2.38;;;3.50;99.90;;;;;;5014416;28;20398;-51
2022/01/05 04:34:06;;;;;;;12.00;2.80;;;3.50;99.90;;;;;;5013884;28;20552;-53
2022/01/05 04:36:32;;;;;;;14.50;2.38;;;3.60;99.90;;;;;;5014120;28;20038;-47
2022/01/05 04:38:58;;;;;;;15.95;2.83;;;3.70;99.90;;;;;;5012771;28;20379;-50
2022/01/05 04:41:23;;;;;;;13.48;2.40;;;3.70;99.90;;;;;;5013067;28;20038;-47
2022/01/05 04:43:49;;;;;;;19.65;2.95;;;3.70;99.90;;;;;;5001081;28;20043;-50
2022/01/05 04:46:14;;;;;;;15.48;2.58;;;3.80;99.90;;;;;;4994684;28;20113;-53
2022/01/05 04:48:42;;;;;;;15.68;2.25;;;3.80;99.90;;;;;;4994491;28;20042;-48
2022/01/05 04:51:08;;;;;;;16.05;2.60;;;3.80;99.90;;;;;;4994239;28;20041;-47
2022/01/05 04:53:33;;;;;;;16.05;2.75;;;3.80;99.90;;;;;;5012397;28;20034;-47
2022/01/05 04:55:59;;;;;;;12.77;2.90;;;3.70;99.90;;;;;;5010886;28;20026;-49
2022/01/05 04:58:24;;;;;;;12.10;2.72;;;3.70;99.90;;;;;;4994231;28;20042;-47
2022/01/05 05:00:50;;;;;;;17.77;2.33;;;3.60;99.90;;;;;;4993159;28;20141;-47
2022/01/05 05:03:15;;;;;;;17.70;2.30;;;3.60;99.90;;;;;;4994622;28;20044;-47
2022/01/05 05:05:41;;;;;;;14.23;2.92;;;3.60;99.90;;;;;;4994019;28;20042;-49
2022/01/05 05:08:07;;;;;;;14.18;2.42;;;3.60;99.90;;;;;;4995255;28;20117;-48
2022/01/05 05:10:32;;;;;;;16.42;2.80;;;3.60;99.90;;;;;;4996365;28;20046;-47
2022/01/05 05:12:58;;;;;;;14.85;2.75;;;3.70;99.90;;;;;;5013454;28;20041;-48
2022/01/05 05:15:25;;;;;;;17.20;2.75;;;3.80;99.90;;;;;;5013834;28;20037;-48
2022/01/05 05:17:51;;;;;;;14.70;2.70;;;3.90;99.90;;;;;;5013670;28;20045;-48
2022/01/05 05:20:16;;;;;;;12.65;1.90;;;4.00;99.90;;;;;;5013545;28;20042;-48
2022/01/05 05:22:42;;;;;;;19.80;2.70;;;4.00;99.90;;;;;;5009866;28;20054;-51
2022/01/05 05:27:35;;;;;;;12.25;2.60;;;4.20;99.90;;;;;;5024198;28;20045;-51
2022/01/05 05:30:01;;;;;;;12.02;2.50;;;4.30;99.90;;;;;;5013263;28;20128;-50
2022/01/05 05:32:26;;;;;;;15.52;2.78;;;4.40;99.90;;;;;;5012959;28;20042;-50
2022/01/05 05:34:52;;;;;;;14.05;2.03;;;4.40;99.90;;;;;;5012939;28;20062;-53
2022/01/05 05:37:17;;;;;;;17.67;2.63;;;4.50;99.90;;;;;;5023500;28;20116;-50
2022/01/05 05:39:44;;;;;;;17.40;2.35;;;4.50;99.90;;;;;;5020851;28;20068;-50
2022/01/05 05:42:10;;;;;;;12.65;2.50;;;4.50;99.90;;;;;;5012183;28;20461;-50
2022/01/05 05:44:36;;;;;;;15.80;2.30;;;4.60;99.90;;;;;;5012980;28;20462;-51
2022/01/05 05:47:02;;;;;;;16.02;2.55;;;4.60;99.90;;;;;;5012840;28;20081;-50
2022/01/05 05:49:28;;;;;;;13.98;2.35;;;4.60;99.90;;;;;;5012542;28;20046;-52
2022/01/05 05:51:54;;;;;;;16.67;1.98;;;4.60;99.90;;;;;;5021794;28;20040;-53
2022/01/05 05:54:19;;;;;;;13.02;2.15;;;4.60;99.90;;;;;;5021937;28;20046;-50
2022/01/05 05:56:45;;;;;;;10.52;2.30;;;4.60;99.90;;;;;;5012766;28;20041;-50
2022/01/05 05:59:10;;;;;;;15.38;2.30;;;4.70;99.90;;;;;;5012984;28;20401;-51
2022/01/05 06:01:36;;;;;;;23.30;3.90;;;4.70;99.90;;;;;;5012648;28;20045;-50
2022/01/05 06:04:02;;;;;;;16.35;2.60;;;4.80;99.90;;;;;;5012254;28;20416;-50
2022/01/05 06:06:28;;;;;;;14.02;2.33;;;4.80;99.90;;;;;;5026692;28;20516;-50
2022/01/05 06:08:54;;;;;;;11.32;2.72;;;4.80;99.90;;;;;;4995111;28;20057;-50
2022/01/05 06:11:19;;;;;;;10.40;1.73;;;4.90;99.90;;;;;;5012339;28;20049;-51
2022/01/05 06:13:45;;;;;;;11.98;2.10;;;4.90;99.90;;;;;;5012324;28;20041;-50
2022/01/05 06:16:10;;;;;;;15.60;2.58;;;4.90;99.90;;;;;;5015279;28;20045;-50
2022/01/05 06:18:36;;;;;;;18.33;2.47;;;4.90;99.90;;;;;;5044260;28;20456;-50
2022/01/05 06:21:02;;;;;;;11.52;1.98;;;4.80;99.90;;;;;;5043143;28;20037;-50
2022/01/05 06:23:27;;;;;;;18.17;2.72;;;4.80;99.90;;;;;;5048845;28;20045;-50
2022/01/05 06:25:53;;;;;;;19.05;2.47;;;4.70;99.90;;;;;;5051733;28;20045;-50
2022/01/05 06:28:18;;;;;;;19.85;2.70;;;4.80;99.90;;;;;;5051856;28;20041;-51
2022/01/05 06:30:44;;;;;;;18.55;2.22;;;4.70;99.90;;;;;;5024785;28;20038;-50
2022/01/05 06:33:09;;;;;;;16.45;2.40;;;4.70;99.90;;;;;;5011956;28;20101;-53
2022/01/05 06:35:35;;;;;;;15.05;2.80;;;4.70;99.90;;;;;;5012136;28;20073;-51
2022/01/05 06:38:01;;;;;;;14.95;2.55;;;4.70;99.90;;;;;;5029600;28;20120;-50
2022/01/05 06:40:27;;;;;;;15.77;2.67;;;4.70;99.90;;;;;;5031707;28;20062;-50
2022/01/05 06:42:53;;;;;;;17.42;2.35;;;4.60;99.90;;;;;;5031396;28;20125;-50
2022/01/05 06:45:18;;;;;;;15.02;2.58;;;4.60;99.90;;;;;;5015103;28;20038;-50
2022/01/05 06:47:44;;;;;;;14.68;2.05;;;4.60;99.90;;;;;;5031514;28;20124;-50
2022/01/05 06:50:10;;;;;;;12.40;2.42;;;4.60;99.90;;;;;;5031410;28;20484;-51
2022/01/05 06:52:36;;;;;;;17.77;2.53;;;4.60;99.90;;;;;;5013386;28;20049;-50
2022/01/05 06:55:03;;;;;;;11.55;1.92;;;4.50;99.90;;;;;;5031520;28;20040;-52
2022/01/05 06:57:28;;;;;;;11.27;1.80;;;4.60;99.90;;;;;;5031540;28;20065;-51
2022/01/05 06:59:54;;;;;;;20.77;2.08;;;4.50;99.90;;;;;;5029836;28;20572;-51
2022/01/05 07:02:19;;;;;;;13.85;1.92;;;4.50;99.90;;;;;;5031085;28;20497;-50
2022/01/05 07:04:44;;;;;;;14.23;2.25;;;4.40;99.90;;;;;;5024645;28;20055;-49
2022/01/05 07:07:10;;;;;;;15.43;2.40;;;4.40;99.90;;;;;;5011802;28;20045;-50
2022/01/05 07:09:35;;;;;;;11.57;2.10;;;4.30;99.90;;;;;;5012695;28;20476;-50
2022/01/05 07:12:01;;;;;;;11.45;1.98;;;4.20;99.90;;;;;;5012507;28;20042;-51
2022/01/05 07:14:27;;;;;;;14.00;2.22;;;4.20;99.90;;;;;;5018747;28;20432;-50
2022/01/05 07:16:52;;;;;;;13.57;2.85;;;4.20;99.90;;;;;;5031192;28;20040;-50
2022/01/05 07:19:20;;;;;;;14.73;2.28;;;4.20;99.90;;;;;;5031032;28;20496;-51
2022/01/05 07:21:46;;;;;;;16.23;2.90;;;4.20;99.90;;;;;;5031345;28;20120;-50
2022/01/05 07:24:16;;;;;;;15.43;2.22;;;4.20;99.90;;;;;;5031328;28;20049;-50
2022/01/05 07:26:41;;;;;;;21.13;2.55;;;4.20;99.90;;;;;;5013029;28;20404;-51
2022/01/05 07:29:07;;;;;;;14.27;2.03;;;4.20;99.90;;;;;;5026563;28;20038;-52
2022/01/05 07:31:32;;;;;;;16.77;2.30;;;4.20;99.90;;;;;;5030868;28;20108;-50
2022/01/05 07:33:58;;;;;;;10.68;2.30;;;4.30;99.90;;;;;;5031222;28;20049;-50
2022/01/05 07:36:23;;;;;;;15.75;2.45;;;4.30;99.90;;;;;;5030889;28;20040;-50
2022/01/05 07:38:49;;;;;;;25.13;3.17;;;4.30;99.90;;;;;;5031266;28;20037;-50
2022/01/05 07:41:14;;;;;;;16.15;2.58;;;4.40;99.90;;;;;;5029441;28;20038;-50
2022/01/05 07:43:40;;;;;;;19.45;2.60;;;4.40;99.90;;;;;;5022576;28;20046;-50
2022/01/05 07:46:05;;;;;;;19.75;2.80;;;4.50;99.90;;;;;;5011105;28;20409;-51
2022/01/05 07:48:31;;;;;;;18.98;2.95;;;4.50;99.90;;;;;;5018618;28;20414;-50
2022/01/05 07:50:57;;;;;;;16.05;3.13;;;4.60;99.90;;;;;;5011372;28;20037;-50
2022/01/05 07:53:22;;;;;;;11.90;2.60;;;4.60;99.90;;;;;;5011266;28;20044;-50
2022/01/05 07:55:48;;;;;;;15.38;2.65;;;4.70;99.90;;;;;;5011074;28;20125;-50
2022/01/05 07:58:14;;;;;;;18.88;2.70;;;4.80;99.90;;;;;;5021741;28;20116;-52
2022/01/05 08:00:39;;;;;;;17.55;2.35;;;4.90;99.90;;;;;;5030749;28;20041;-50
2022/01/05 08:03:05;;;;;;;13.50;2.00;;;4.90;99.90;;;;;;5029360;28;20044;-50
2022/01/05 08:05:31;;;;;;;14.00;2.72;;;5.00;99.90;;;;;;5034214;28;20095;-50
2022/01/05 08:07:56;;;;;;;15.90;2.15;;;5.00;99.90;;;;;;5034538;28;20051;-51
2022/01/05 08:10:22;;;;;;;17.27;2.22;;;5.10;99.90;;;;;;5034426;28;20076;-50
2022/01/05 08:12:47;;;;;;;11.60;2.00;;;5.10;99.90;;;;;;5032558;28;20134;-50
2022/01/05 08:15:15;;;;;;;11.57;2.10;;;5.10;99.90;;;;;;5034282;28;20030;-50
2022/01/05 08:17:41;;;;;;;9.27;1.70;;;5.20;99.90;;;;;;4997105;28;20041;-50
2022/01/05 08:20:10;;;;;;;20.00;2.50;;;5.20;99.90;;;;;;5014556;28;20446;-50
2022/01/05 08:22:40;;;;;;;19.33;2.50;;;5.20;99.90;;;;;;5014377;28;20100;-50
2022/01/05 08:25:07;;;;;;;15.15;2.33;;;5.20;99.90;;;;;;4996625;28;20045;-51
2022/01/05 08:27:32;;;;;;;14.75;2.20;;;5.20;99.90;;;;;;5029921;28;20041;-51
2022/01/05 08:30:03;;;;;;;17.33;2.97;;;5.20;99.90;;;;;;5033904;28;20033;-50
2022/01/05 08:32:29;;;;;;;20.27;2.80;;;5.20;99.90;;;;;;5014301;28;20058;-51
2022/01/05 08:34:55;;;;;;;15.73;2.55;;;5.20;99.90;;;;;;5015387;28;20034;-51
2022/01/05 08:37:20;;;;;;;24.42;3.13;;;5.20;99.90;;;;;;5014160;28;20544;-51
2022/01/05 08:39:49;;;;;;;17.23;3.00;;;5.20;99.90;;;;;;5014112;28;20632;-50
2022/01/05 08:42:15;;;;;;;18.20;3.03;;;5.30;99.90;;;;;;5013934;28;20038;-50
2022/01/05 08:44:41;;;;;;;13.80;2.60;;;5.30;99.90;;;;;;5013856;28;20049;-51
2022/01/05 08:47:07;;;;;;;19.90;2.22;;;5.30;99.90;;;;;;5023174;28;20041;-50
2022/01/05 08:49:33;;;;;;;17.17;2.78;;;5.90;99.90;;;;;;5017136;28;20513;-50
2022/01/05 08:51:59;;;;;;;13.00;2.30;;;5.30;99.90;;;;;;5026928;28;20036;-51
2022/01/05 08:54:25;;;;;;;18.90;2.38;;;5.40;99.90;;;;;;5033273;28;20042;-51
2022/01/05 08:56:51;;;;;;;12.52;1.83;;;5.40;99.90;;;;;;5032951;28;20079;-50
2022/01/05 08:59:16;;;;;;;12.35;2.20;;;5.40;99.90;;;;;;5033409;28;20064;-50
2022/01/05 09:01:43;;;;;;;16.70;2.60;;;5.40;99.90;;;;;;5017879;28;20092;-50
2022/01/05 09:04:08;;;;;;;12.73;2.80;;;5.50;99.90;;;;;;5015444;28;20041;-50
2022/01/05 09:06:34;;;;;;;13.88;2.50;;;5.50;99.90;;;;;;5014771;28;20064;-52
2022/01/05 09:08:59;;;;;;;15.23;2.00;;;5.50;99.90;;;;;;5023297;28;20087;-51
2022/01/05 09:11:27;;;;;;;20.08;2.90;;;5.40;99.90;;;;;;5032523;28;20045;-51
2022/01/05 09:13:52;;;;;;;17.70;2.53;;;5.50;99.90;;;;;;5019554;28;20049;-51
2022/01/05 09:16:18;;;;;;;20.15;2.60;;;5.50;99.90;;;;;;5023221;28;20041;-51
2022/01/05 09:18:44;;;;;;;13.95;2.60;;;5.50;99.90;;;;;;5017669;28;20106;-51
2022/01/05 09:21:10;;;;;;;10.75;1.63;;;5.60;99.90;;;;;;5028506;28;20081;-52
2022/01/05 09:23:35;;;;;;;9.18;2.10;;;5.60;99.90;;;;;;5038106;28;20065;-51
2022/01/05 09:26:02;;;;;;;8.80;1.92;;;5.70;99.90;;;;;;5044371;28;20128;-50
2022/01/05 09:28:28;;;;;;;9.68;2.10;;;5.70;99.90;;;;;;5036090;28;20041;-51
2022/01/05 09:30:54;;;;;;;13.15;1.63;;;5.70;99.90;;;;;;5033174;28;20517;-52
2022/01/05 09:33:20;;;;;;;10.02;1.95;;;5.70;99.90;;;;;;5031418;28;20076;-54
2022/01/05 09:35:48;;;;;;;12.70;2.03;;;5.70;99.90;;;;;;5029038;28;20041;-53
2022/01/05 09:38:36;;;;;;;14.15;2.25;;;5.70;99.90;;;;;;5031465;28;20493;-51
2022/01/05 09:43:51;;;;;;;10.15;1.90;;;5.70;99.90;;;;;;5029937;28;20084;-54
2022/01/05 09:46:31;;;;;;;9.18;2.00;;;5.70;99.90;;;;;;5029503;28;20497;-54
2022/01/05 09:49:18;;;;;;;9.85;1.85;;;5.70;99.90;;;;;;5030771;28;20045;-53
2022/01/05 09:51:43;;;;;;;11.52;2.10;;;5.70;99.90;;;;;;5030491;28;20049;-51
2022/01/05 09:54:11;;;;;;;14.63;2.47;;;5.80;99.90;;;;;;5030454;28;20120;-53
2022/01/05 09:56:37;;;;;;;12.18;2.13;;;5.80;99.90;;;;;;5011510;28;20096;-51
2022/01/05 09:59:04;;;;;;;12.23;2.15;;;5.80;99.90;;;;;;5028522;28;20706;-54
2022/01/05 10:01:31;;;;;;;17.27;2.95;;;5.80;99.90;;;;;;5031305;28;20512;-52
2022/01/05 10:04:01;;;;;;;13.98;2.22;;;5.90;99.90;;;;;;5030877;28;20443;-54
2022/01/05 10:06:27;;;;;;;17.90;2.42;;;5.80;99.90;;;;;;5031205;28;20417;-53
2022/01/05 10:08:53;;;;;;;21.20;2.70;;;5.90;99.90;;;;;;5030339;28;20041;-53
2022/01/05 10:11:22;;;;;;;24.42;2.95;;;5.90;99.90;;;;;;5028373;28;20401;-53
2022/01/05 10:13:52;;;;;;;21.77;2.70;;;5.90;99.90;;;;;;5028032;28;20053;-54
2022/01/05 10:16:18;;;;;;;19.60;2.42;;;5.90;99.90;;;;;;5030141;28;20044;-52
2022/01/05 10:18:44;;;;;;;17.25;2.42;;;6.00;99.90;;;;;;5030979;28;20038;-53
2022/01/05 10:21:14;;;;;;;16.33;2.60;;;6.00;99.90;;;;;;5031265;28;20460;-52
2022/01/05 10:23:48;;;;;;;19.15;2.35;;;6.00;99.90;;;;;;5030101;28;20489;-52
2022/01/05 10:26:29;;;;;;;17.90;2.80;;;6.00;99.90;;;;;;5030429;28;20053;-52
2022/01/05 10:29:06;;;;;;;18.60;2.67;;;6.10;99.90;;;;;;5029209;28;20541;-53
2022/01/05 10:31:37;;;;;;;17.08;2.67;;;6.10;99.90;;;;;;5030463;28;20129;-54
2022/01/05 10:34:24;;;;;;;20.02;2.78;;;6.10;99.90;;;;;;5028660;28;20049;-50
2022/01/05 10:36:58;;;;;;;20.10;2.60;;;6.20;99.90;;;;;;5029709;28;20037;-52
2022/01/05 10:39:33;;;;;;;24.73;3.13;;;6.30;99.90;;;;;;5011474;28;20053;-54
2022/01/05 10:42:10;;;;;;;20.27;2.72;;;6.30;99.90;;;;;;5026795;28;20049;-52
2022/01/05 10:44:37;;;;;;;12.95;2.20;;;6.30;99.90;;;;;;5029650;28;20409;-53
2022/01/05 10:47:05;;;;;;;13.75;2.10;;;6.30;99.90;;;;;;5029285;28;20040;-53
2022/01/05 10:49:37;;;;;;;15.10;1.95;;;6.30;99.90;;;;;;5030536;28;20064;-53
2022/01/05 10:52:24;;;;;;;13.00;1.42;;;6.30;99.90;;;;;;5027165;28;20059;-53
2022/01/05 10:54:50;;;;;;;9.80;1.50;;;6.30;99.90;;;;;;5029488;28;20045;-54
2022/01/05 10:57:17;;;;;;;16.30;2.00;;;6.30;99.90;;;;;;5030563;28;20057;-53
2022/01/05 10:59:45;;;;;;;11.57;2.30;;;6.20;99.90;;;;;;5030568;28;20118;-53
2022/01/05 11:02:28;;;;;;;9.75;2.55;;;6.20;99.90;;;;;;5024158;28;20447;-53
2022/01/05 11:05:14;;;;;;;14.57;2.22;;;6.20;99.90;;;;;;5030096;28;20041;-50
2022/01/05 11:07:42;;;;;;;17.25;2.17;;;6.20;99.90;;;;;;5030167;28;20176;-53
2022/01/05 11:10:10;;;;;;;18.67;2.42;;;6.20;99.90;;;;;;5031495;28;20076;-53
2022/01/05 11:12:50;;;;;;;20.10;3.00;;;6.30;99.90;;;;;;5028585;28;20045;-53
2022/01/05 11:15:28;;;;;;;16.90;2.95;;;6.40;99.90;;;;;;5021601;28;20038;-51
2022/01/05 11:18:15;;;;;;;22.13;3.42;;;6.50;99.90;;;;;;5011894;28;20034;-50
2022/01/05 11:20:55;;;;;;;22.77;3.20;;;6.50;99.90;;;;;;5011693;28;20042;-49
2022/01/05 11:23:23;;;;;;;24.02;3.03;;;6.50;99.90;;;;;;5011527;28;20497;-52
2022/01/05 11:25:50;;;;;;;22.63;3.20;;;6.70;99.90;;;;;;5035073;22;20064;-52
2022/01/05 11:28:17;;;;;;;22.45;3.35;;;6.70;99.90;;;;;;4987752;28;20124;-52
2022/01/05 11:30:44;;;;;;;17.83;2.47;;;6.80;99.90;;;;;;5011797;28;20053;-52
2022/01/05 11:33:10;;;;;;;18.95;3.30;;;6.80;99.90;;;;;;5000266;28;20050;-52
2022/01/05 11:35:36;;;;;;;20.48;2.80;;;6.90;99.90;;;;;;5010663;28;20034;-48
2022/01/05 11:38:03;;;;;;;19.20;2.97;;;6.90;99.90;;;;;;4991028;28;20445;-52
2022/01/05 11:40:31;;;;;;;21.83;2.92;;;6.90;99.90;;;;;;4994937;28;20038;-50
2022/01/05 11:43:02;;;;;;;20.63;2.60;;;7.00;99.90;;;;;;4977182;28;20043;-53
2022/01/05 11:45:45;;;;;;;21.35;3.47;;;7.00;99.90;;;;;;4994440;28;20049;-52
2022/01/05 11:48:28;;;;;;;16.10;2.45;;;7.00;99.90;;;;;;4994816;28;20486;-54
2022/01/05 11:50:56;;;;;;;11.63;2.13;;;7.00;99.90;;;;;;4994419;28;20402;-53
2022/01/05 11:53:40;;;;;;;15.98;2.30;;;7.00;99.90;;;;;;4994508;28;20102;-53
2022/01/05 11:56:09;;;;;;;18.95;2.58;;;7.00;99.90;;;;;;4995498;28;20042;-50
2022/01/05 11:58:48;;;;;;;17.63;3.20;;;7.00;99.90;;;;;;4977490;28;20065;-53
2022/01/05 12:01:13;;;;;;;21.75;3.13;;;7.00;99.90;;;;;;4995633;28;20047;-53
2022/01/05 12:03:56;;;;;;;17.80;3.10;;;7.00;99.90;;;;;;4995454;28;20057;-54
2022/01/05 12:06:24;;;;;;;18.02;2.70;;;7.10;99.90;;;;;;4995473;28;20575;-52
2022/01/05 12:08:51;;;;;;;16.60;3.03;;;7.10;99.90;;;;;;4995062;28;20077;-54
2022/01/05 12:11:42;;;;;;;19.25;2.58;;;7.20;99.90;;;;;;4961685;28;20105;-53
2022/01/05 12:14:19;;;;;;;16.13;3.33;;;7.20;99.90;;;;;;4977830;28;20049;-50
2022/01/05 12:17:05;;;;;;;20.48;3.15;;;7.20;99.90;;;;;;4994707;28;20445;-53
2022/01/05 12:19:55;;;;;;;15.18;2.90;;;7.20;99.90;;;;;;4994784;28;20046;-54
2022/01/05 12:22:30;;;;;;;18.55;2.95;;;7.20;99.90;;;;;;5003198;28;20041;-54
2022/01/05 12:25:05;;;;;;;10.60;2.20;;;7.20;99.90;;;;;;5007707;28;20482;-51
2022/01/05 12:27:54;;;;;;;21.73;3.28;;;7.20;99.90;;;;;;5007435;28;20483;-51
2022/01/05 12:30:20;;;;;;;17.58;2.70;;;7.10;99.90;;;;;;5007606;28;20413;-48
2022/01/05 12:32:48;;;;;;;15.77;2.40;;;7.00;99.90;;;;;;4994878;28;20046;-50
2022/01/05 12:35:19;;;;;;;16.50;2.10;;;6.90;99.90;;;;;;5002155;28;20042;-50
2022/01/05 12:38:05;;;;;;;13.43;2.53;;;6.80;99.90;;;;;;4988147;28;20562;-53
2022/01/05 12:40:36;;;;;;;12.35;1.98;;;6.80;99.90;;;;;;4976187;28;20084;-53
2022/01/05 12:43:10;;;;;;;11.38;1.48;;;6.90;99.90;;;;;;4994135;28;20050;-53
2022/01/05 12:45:45;;;;;;;11.18;1.60;;;6.90;99.90;;;;;;4990564;28;20490;-52
2022/01/05 12:48:40;;;;;;;8.15;2.08;;;7.00;99.90;;;;;;4991470;28;20049;-53
2022/01/05 12:51:14;;;;;;;10.95;1.67;;;7.00;99.90;;;;;;4929409;28;20719;-52
2022/01/05 12:54:01;;;;;;;15.18;1.73;;;7.10;99.90;;;;;;4991784;28;20038;-50
2022/01/05 12:56:51;;;;;;;13.05;1.70;;;7.10;99.90;;;;;;4991304;28;20406;-53